Wetterdaten: Woche 01.10.12 - 07.10.12 (KW40)
Datum Zeit Temp. I. Temp. A. Boden 5 cm Feuchte A. Sonne Luftdruck Regen Wind Sonnenschein Zeit Regen
01.10.2012 00:00 22,5 C 12,6 C 11,9 C 88 % 0 % 1013 hPa 0,0 l/m 0,0 km/h (0 Bft) 0,00 h 0,00 h
01.10.2012 01:00 22,5 C 11,9 C 11,5 C 89 % 0 % 1012 hPa 0,0 l/m 0,0 km/h (0 Bft) 0,00 h 0,00 h
01.10.2012 02:00 22,4 C 11,5 C 11,4 C 89 % 0 % 1012 hPa 0,0 l/m 0,0 km/h (0 Bft) 0,00 h 0,00 h
01.10.2012 03:00 22,4 C 11,4 C 11,4 C 90 % 0 % 1011 hPa 0,0 l/m 0,0 km/h (0 Bft) 0,00 h 0,00 h
01.10.2012 04:00 22,5 C 11,3 C 11,6 C 91 % 0 % 1011 hPa 0,0 l/m 0,0 km/h (0 Bft) 0,00 h 0,00 h
01.10.2012 05:00 22,6 C 11,2 C 11,5 C 91 % 0 % 1011 hPa 0,0 l/m 0,0 km/h (0 Bft) 0,00 h 0,00 h
01.10.2012 06:00 22,8 C 10,9 C 11,1 C 93 % 0 % 1011 hPa 0,0 l/m 0,0 km/h (0 Bft) 0,00 h 0,00 h
01.10.2012 07:00 22,4 C 10,7 C 11,4 C 94 % 2 % 1011 hPa 0,7 l/m 0,0 km/h (0 Bft) 0,00 h 0,85 h
01.10.2012 08:00 22,3 C 11,1 C 11,9 C 95 % 8 % 1011 hPa 0,0 l/m 0,0 km/h (0 Bft) 0,00 h 0,70 h
01.10.2012 09:00 22,4 C 11,4 C 12,2 C 95 % 11 % 1012 hPa 0,3 l/m 0,0 km/h (0 Bft) 0,00 h 0,50 h
01.10.2012 10:00 22,6 C 11,9 C 13,0 C 96 % 19 % 1012 hPa 0,3 l/m 0,0 km/h (0 Bft) 0,00 h 0,60 h
01.10.2012 11:00 22,8 C 12,6 C 14,2 C 95 % 30 % 1012 hPa 0,0 l/m 0,3 km/h (0 Bft) 0,00 h 0,00 h
01.10.2012 12:00 22,8 C 13,6 C 15,5 C 94 % 41 % 1012 hPa 0,0 l/m 2,8 km/h (1 Bft) 0,10 h 0,00 h
01.10.2012 13:00 22,8 C 14,4 C 15,5 C 91 % 31 % 1012 hPa 0,0 l/m 1,0 km/h (0 Bft) 0,10 h 0,00 h
01.10.2012 14:00 22,7 C 14,2 C 14,7 C 91 % 14 % 1012 hPa 0,0 l/m 0,5 km/h (0 Bft) 0,00 h 0,00 h
01.10.2012 15:00 22,7 C 14,1 C 14,1 C 91 % 11 % 1012 hPa 0,0 l/m 1,5 km/h (1 Bft) 0,00 h 0,00 h
01.10.2012 16:00 22,6 C 14,4 C 15,1 C 91 % 16 % 1012 hPa 0,0 l/m 1,6 km/h (1 Bft) 0,00 h 0,00 h
01.10.2012 17:00 23,0 C 14,6 C 14,7 C 91 % 8 % 1012 hPa 0,0 l/m 0,9 km/h (0 Bft) 0,00 h 0,00 h
01.10.2012 18:00 23,0 C 14,2 C 14,0 C 92 % 1 % 1012 hPa 0,0 l/m 0,0 km/h (0 Bft) 0,00 h 0,00 h
01.10.2012 19:00 22,9 C 13,9 C 13,7 C 92 % 0 % 1012 hPa 0,0 l/m 0,0 km/h (0 Bft) 0,00 h 0,00 h
01.10.2012 20:00 22,9 C 13,7 C 13,5 C 93 % 0 % 1012 hPa 0,0 l/m 0,0 km/h (0 Bft) 0,00 h 0,00 h
01.10.2012 21:00 22,9 C 13,6 C 13,5 C 94 % 0 % 1013 hPa 0,0 l/m 0,0 km/h (0 Bft) 0,00 h 0,00 h
01.10.2012 22:00 22,8 C 13,5 C 13,5 C 94 % 0 % 1013 hPa 0,0 l/m 0,0 km/h (0 Bft) 0,00 h 0,00 h
01.10.2012 23:00 22,7 C 13,4 C 13,4 C 95 % 0 % 1013 hPa 0,0 l/m 0,0 km/h (0 Bft) 0,00 h 0,00 h
02.10.2012 00:00 22,6 C 13,2 C 13,2 C 95 % 0 % 1013 hPa 0,0 l/m 0,2 km/h (0 Bft) 0,00 h 0,00 h
02.10.2012 01:00 22,6 C 13,1 C 13,2 C 95 % 0 % 1013 hPa 0,0 l/m 0,0 km/h (0 Bft) 0,00 h 0,00 h
02.10.2012 02:00 22,6 C 13,1 C 13,2 C 95 % 0 % 1013 hPa 0,0 l/m 0,4 km/h (0 Bft) 0,00 h 0,00 h
02.10.2012 03:00 22,5 C 12,8 C 12,4 C 95 % 0 % 1013 hPa 0,0 l/m 0,2 km/h (0 Bft) 0,00 h 0,00 h
02.10.2012 04:00 22,6 C 12,0 C 12,0 C 96 % 0 % 1013 hPa 0,0 l/m 0,2 km/h (0 Bft) 0,00 h 0,00 h
02.10.2012 05:00 22,7 C 11,6 C 11,4 C 96 % 0 % 1013 hPa 0,0 l/m 0,6 km/h (0 Bft) 0,00 h 0,00 h
02.10.2012 06:00 22,9 C 11,5 C 11,7 C 96 % 0 % 1013 hPa 0,0 l/m 0,0 km/h (0 Bft) 0,00 h 0,00 h
02.10.2012 07:00 21,9 C 11,5 C 12,0 C 96 % 2 % 1013 hPa 0,0 l/m 0,0 km/h (0 Bft) 0,00 h 0,00 h
02.10.2012 08:00 22,6 C 11,6 C 12,5 C 96 % 10 % 1014 hPa 0,0 l/m 0,0 km/h (0 Bft) 0,00 h 0,00 h
02.10.2012 09:00 22,6 C 12,2 C 13,0 C 96 % 15 % 1014 hPa 0,0 l/m 0,8 km/h (0 Bft) 0,00 h 0,00 h
02.10.2012 10:00 22,8 C 12,8 C 13,8 C 95 % 22 % 1014 hPa 0,0 l/m 0,6 km/h (0 Bft) 0,00 h 0,00 h
02.10.2012 11:00 22,8 C 13,5 C 14,9 C 94 % 28 % 1014 hPa 0,0 l/m 0,5 km/h (0 Bft) 0,00 h 0,00 h
02.10.2012 12:00 22,7 C 14,5 C 15,8 C 90 % 48 % 1014 hPa 0,0 l/m 3,1 km/h (1 Bft) 0,40 h 0,00 h
02.10.2012 13:00 22,8 C 15,4 C 15,9 C 85 % 35 % 1014 hPa 0,0 l/m 3,4 km/h (1 Bft) 0,20 h 0,00 h
02.10.2012 14:00 22,3 C 16,7 C 17,3 C 77 % 56 % 1013 hPa 0,0 l/m 5,3 km/h (1 Bft) 0,65 h 0,00 h
02.10.2012 15:00 22,5 C 17,1 C 19,9 C 73 % 60 % 1013 hPa 0,0 l/m 4,9 km/h (1 Bft) 0,50 h 0,00 h
02.10.2012 16:00 22,8 C 17,3 C 18,7 C 68 % 61 % 1013 hPa 0,0 l/m 5,8 km/h (2 Bft) 0,55 h 0,00 h
02.10.2012 17:00 23,2 C 16,6 C 16,9 C 65 % 30 % 1012 hPa 0,0 l/m 10,0 km/h (2 Bft) 0,85 h 0,00 h
02.10.2012 18:00 22,2 C 15,4 C 15,0 C 68 % 9 % 1012 hPa 0,0 l/m 2,0 km/h (1 Bft) 0,55 h 0,00 h
02.10.2012 19:00 22,6 C 13,9 C 12,7 C 73 % 0 % 1013 hPa 0,0 l/m 3,3 km/h (1 Bft) 0,00 h 0,00 h
02.10.2012 20:00 22,7 C 13,0 C 11,8 C 79 % 0 % 1013 hPa 0,0 l/m 0,0 km/h (0 Bft) 0,00 h 0,00 h
02.10.2012 21:00 22,8 C 12,4 C 11,2 C 83 % 0 % 1013 hPa 0,0 l/m 0,0 km/h (0 Bft) 0,00 h 0,00 h
02.10.2012 22:00 22,7 C 11,5 C 10,7 C 86 % 0 % 1013 hPa 0,0 l/m 0,0 km/h (0 Bft) 0,00 h 0,00 h
02.10.2012 23:00 22,6 C 10,6 C 10,3 C 88 % 0 % 1013 hPa 0,0 l/m 0,4 km/h (0 Bft) 0,00 h 0,00 h
03.10.2012 00:00 22,6 C 9,8 C 9,9 C 93 % 0 % 1013 hPa 0,0 l/m 1,9 km/h (1 Bft) 0,00 h 0,00 h
03.10.2012 01:00 22,5 C 8,8 C 9,2 C 95 % 0 % 1013 hPa 0,0 l/m 0,7 km/h (0 Bft) 0,00 h 0,00 h
03.10.2012 02:00 22,5 C 8,3 C 9,0 C 96 % 0 % 1013 hPa 0,0 l/m 0,7 km/h (0 Bft) 0,00 h 0,00 h
03.10.2012 03:00 22,5 C 7,4 C 8,5 C 98 % 0 % 1013 hPa 0,0 l/m 1,4 km/h (1 Bft) 0,00 h 0,00 h
03.10.2012 04:00 22,6 C 7,3 C 8,9 C 99 % 0 % 1013 hPa 0,0 l/m 1,1 km/h (1 Bft) 0,00 h 0,00 h
03.10.2012 05:00 22,6 C 6,9 C 8,1 C 99 % 0 % 1013 hPa 0,0 l/m 3,5 km/h (1 Bft) 0,00 h 0,00 h
03.10.2012 06:00 22,1 C 6,9 C 8,8 C 99 % 0 % 1013 hPa 0,0 l/m 0,5 km/h (0 Bft) 0,00 h 0,00 h
03.10.2012 07:00 22,9 C 7,0 C 8,7 C 99 % 3 % 1013 hPa 0,0 l/m 1,5 km/h (1 Bft) 0,00 h 0,00 h
03.10.2012 08:00 23,1 C 7,1 C 9,0 C 99 % 12 % 1013 hPa 0,0 l/m 4,0 km/h (1 Bft) 0,00 h 0,00 h
03.10.2012 09:00 22,3 C 7,7 C 9,9 C 99 % 22 % 1013 hPa 0,0 l/m 3,0 km/h (1 Bft) 0,00 h 0,00 h
03.10.2012 10:00 21,1 C 9,2 C 13,4 C 99 % 36 % 1014 hPa 0,0 l/m 1,2 km/h (1 Bft) 0,00 h 0,00 h
03.10.2012 11:00 22,4 C 11,3 C 17,4 C 98 % 53 % 1013 hPa 0,0 l/m 5,1 km/h (1 Bft) 0,50 h 0,00 h
03.10.2012 12:00 22,6 C 14,4 C 17,2 C 91 % 89 % 1013 hPa 0,0 l/m 5,9 km/h (2 Bft) 1,00 h 0,00 h
03.10.2012 13:00 22,7 C 16,4 C 16,0 C 80 % 100 % 1012 hPa 0,0 l/m 5,5 km/h (1 Bft) 1,00 h 0,00 h
03.10.2012 14:00 23,0 C 17,9 C 16,8 C 68 % 100 % 1012 hPa 0,0 l/m 6,0 km/h (2 Bft) 1,00 h 0,00 h
03.10.2012 15:00 23,5 C 18,5 C 22,7 C 64 % 100 % 1011 hPa 0,0 l/m 2,9 km/h (1 Bft) 1,00 h 0,00 h
03.10.2012 16:00 23,3 C 18,3 C 21,2 C 65 % 90 % 1011 hPa 0,0 l/m 3,8 km/h (1 Bft) 1,00 h 0,00 h
03.10.2012 17:00 23,5 C 17,6 C 19,1 C 67 % 35 % 1011 hPa 0,0 l/m 2,4 km/h (1 Bft) 1,00 h 0,00 h
03.10.2012 18:00 23,6 C 16,5 C 15,5 C 70 % 7 % 1010 hPa 0,0 l/m 3,4 km/h (1 Bft) 0,50 h 0,00 h
03.10.2012 19:00 24,1 C 15,8 C 13,9 C 73 % 0 % 1010 hPa 0,0 l/m 1,4 km/h (1 Bft) 0,00 h 0,00 h
03.10.2012 20:00 22,2 C 15,1 C 13,4 C 78 % 0 % 1011 hPa 0,0 l/m 0,8 km/h (0 Bft) 0,00 h 0,00 h
03.10.2012 21:00 23,0 C 14,1 C 12,7 C 82 % 0 % 1011 hPa 0,0 l/m 0,1 km/h (0 Bft) 0,00 h 0,00 h
03.10.2012 22:00 23,0 C 13,5 C 12,3 C 85 % 0 % 1011 hPa 0,0 l/m 0,0 km/h (0 Bft) 0,00 h 0,00 h
03.10.2012 23:00 22,9 C 12,6 C 11,7 C 87 % 0 % 1011 hPa 0,0 l/m 1,0 km/h (0 Bft) 0,00 h 0,00 h
04.10.2012 00:00 22,8 C 11,5 C 11,0 C 91 % 0 % 1011 hPa 0,0 l/m 0,8 km/h (0 Bft) 0,00 h 0,00 h
04.10.2012 01:00 22,8 C 11,2 C 10,9 C 92 % 0 % 1011 hPa 0,0 l/m 1,9 km/h (1 Bft) 0,00 h 0,00 h
04.10.2012 02:00 22,7 C 10,3 C 10,6 C 95 % 0 % 1011 hPa 0,0 l/m 1,9 km/h (1 Bft) 0,00 h 0,00 h
04.10.2012 03:00 22,6 C 10,2 C 10,2 C 95 % 0 % 1011 hPa 0,0 l/m 2,2 km/h (1 Bft) 0,00 h 0,00 h
04.10.2012 04:00 22,7 C 9,9 C 10,3 C 96 % 0 % 1010 hPa 0,0 l/m 3,8 km/h (1 Bft) 0,00 h 0,00 h
04.10.2012 05:00 22,3 C 10,4 C 10,9 C 96 % 0 % 1010 hPa 0,0 l/m 3,0 km/h (1 Bft) 0,00 h 0,00 h
04.10.2012 06:00 21,2 C 10,3 C 10,2 C 97 % 0 % 1010 hPa 0,0 l/m 7,2 km/h (2 Bft) 0,00 h 0,00 h
04.10.2012 07:00 22,1 C 10,3 C 10,8 C 97 % 2 % 1009 hPa 0,0 l/m 4,3 km/h (1 Bft) 0,00 h 0,00 h
04.10.2012 08:00 22,4 C 10,6 C 11,4 C 97 % 11 % 1009 hPa 0,0 l/m 5,0 km/h (1 Bft) 0,00 h 0,00 h
04.10.2012 09:00 22,5 C 11,7 C 13,1 C 96 % 19 % 1009 hPa 0,0 l/m 5,6 km/h (1 Bft) 0,00 h 0,00 h
04.10.2012 10:00 22,5 C 13,1 C 14,4 C 95 % 26 % 1009 hPa 0,0 l/m 4,9 km/h (1 Bft) 0,00 h 0,00 h
04.10.2012 11:00 22,4 C 14,4 C 16,3 C 92 % 40 % 1009 hPa 0,0 l/m 6,4 km/h (2 Bft) 0,00 h 0,00 h
04.10.2012 12:00 22,4 C 16,2 C 18,0 C 86 % 50 % 1008 hPa 0,0 l/m 6,7 km/h (2 Bft) 0,25 h 0,00 h
04.10.2012 13:00 22,5 C 17,1 C 17,6 C 83 % 35 % 1007 hPa 0,0 l/m 8,5 km/h (2 Bft) 0,00 h 0,00 h
04.10.2012 14:00 22,8 C 17,2 C 17,2 C 83 % 30 % 1007 hPa 0,0 l/m 9,4 km/h (2 Bft) 0,00 h 0,00 h
04.10.2012 15:00 22,8 C 17,7 C 17,5 C 80 % 28 % 1006 hPa 0,0 l/m 4,4 km/h (1 Bft) 0,05 h 0,00 h
04.10.2012 16:00 22,8 C 17,6 C 16,8 C 84 % 14 % 1006 hPa 0,0 l/m 4,1 km/h (1 Bft) 0,00 h 0,00 h
04.10.2012 17:00 22,8 C 17,1 C 15,4 C 82 % 3 % 1007 hPa 0,3 l/m 17,2 km/h (3 Bft) 0,00 h 0,45 h
04.10.2012 18:00 22,7 C 15,8 C 13,6 C 76 % 1 % 1008 hPa 0,3 l/m 26,3 km/h (4 Bft) 0,00 h 0,70 h
04.10.2012 19:00 22,8 C 13,0 C 12,1 C 84 % 0 % 1010 hPa 0,7 l/m 35,2 km/h (5 Bft) 0,00 h 0,85 h
04.10.2012 20:00 22,7 C 11,9 C 11,9 C 92 % 0 % 1011 hPa 0,3 l/m 18,3 km/h (3 Bft) 0,00 h 1,00 h
04.10.2012 21:00 22,7 C 11,4 C 11,6 C 93 % 0 % 1012 hPa 0,0 l/m 11,2 km/h (2 Bft) 0,00 h 0,25 h
04.10.2012 22:00 22,6 C 10,7 C 11,1 C 95 % 0 % 1014 hPa 0,0 l/m 1,7 km/h (1 Bft) 0,00 h 0,00 h
04.10.2012 23:00 22,5 C 10,5 C 11,2 C 97 % 0 % 1014 hPa 0,0 l/m 3,7 km/h (1 Bft) 0,00 h 0,00 h
05.10.2012 00:00 22,4 C 10,3 C 10,8 C 97 % 0 % 1014 hPa 0,0 l/m 2,5 km/h (1 Bft) 0,00 h 0,00 h
05.10.2012 01:00 22,4 C 9,7 C 10,3 C 97 % 0 % 1015 hPa 0,0 l/m 1,5 km/h (1 Bft) 0,00 h 0,00 h
05.10.2012 02:00 22,3 C 9,1 C 9,5 C 97 % 0 % 1014 hPa 0,0 l/m 0,1 km/h (0 Bft) 0,00 h 0,00 h
05.10.2012 03:00 22,2 C 8,8 C 9,0 C 97 % 0 % 1014 hPa 0,0 l/m 2,9 km/h (1 Bft) 0,00 h 0,00 h
05.10.2012 04:00 22,3 C 8,4 C 9,0 C 99 % 0 % 1014 hPa 0,3 l/m 2,3 km/h (1 Bft) 0,00 h 0,05 h
05.10.2012 05:00 22,4 C 8,4 C 9,3 C 98 % 0 % 1014 hPa 0,0 l/m 1,9 km/h (1 Bft) 0,00 h 0,00 h
05.10.2012 06:00 22,5 C 7,8 C 8,9 C 99 % 0 % 1013 hPa 0,0 l/m 0,2 km/h (0 Bft) 0,00 h 0,00 h
05.10.2012 07:00 21,1 C 7,6 C 8,9 C 98 % 3 % 1013 hPa 0,0 l/m 0,1 km/h (0 Bft) 0,00 h 0,00 h
05.10.2012 08:00 22,1 C 8,0 C 9,6 C 99 % 14 % 1013 hPa 0,0 l/m 5,0 km/h (1 Bft) 0,00 h 0,00 h
05.10.2012 09:00 22,2 C 9,2 C 13,4 C 99 % 22 % 1013 hPa 0,0 l/m 8,6 km/h (2 Bft) 0,00 h 0,00 h
05.10.2012 10:00 22,3 C 11,3 C 20,8 C 96 % 36 % 1013 hPa 0,0 l/m 10,7 km/h (2 Bft) 0,00 h 0,00 h
05.10.2012 11:00 22,4 C 13,4 C 21,4 C 87 % 56 % 1013 hPa 0,0 l/m 14,9 km/h (3 Bft) 0,55 h 0,00 h
05.10.2012 12:00 22,2 C 15,4 C 18,4 C 78 % 89 % 1012 hPa 0,0 l/m 9,9 km/h (2 Bft) 1,00 h 0,00 h
05.10.2012 13:00 22,3 C 17,1 C 16,7 C 73 % 100 % 1012 hPa 0,0 l/m 5,5 km/h (1 Bft) 1,00 h 0,00 h
05.10.2012 14:00 22,7 C 18,5 C 17,8 C 70 % 99 % 1011 hPa 0,0 l/m 5,7 km/h (1 Bft) 1,00 h 0,00 h
05.10.2012 15:00 22,5 C 19,6 C 20,2 C 65 % 96 % 1011 hPa 0,0 l/m 11,3 km/h (2 Bft) 1,00 h 0,00 h
05.10.2012 16:00 22,5 C 19,8 C 20,8 C 66 % 88 % 1010 hPa 0,0 l/m 7,3 km/h (2 Bft) 1,00 h 0,00 h
05.10.2012 17:00 22,6 C 19,4 C 19,6 C 69 % 34 % 1010 hPa 0,0 l/m 3,3 km/h (1 Bft) 1,00 h 0,00 h
05.10.2012 18:00 22,8 C 18,2 C 16,8 C 74 % 7 % 1010 hPa 0,0 l/m 0,1 km/h (0 Bft) 0,45 h 0,00 h
05.10.2012 19:00 22,7 C 17,3 C 14,8 C 75 % 0 % 1010 hPa 0,0 l/m 0,9 km/h (0 Bft) 0,00 h 0,00 h
05.10.2012 20:00 22,5 C 16,1 C 14,0 C 81 % 0 % 1011 hPa 0,0 l/m 1,1 km/h (1 Bft) 0,00 h 0,00 h
05.10.2012 21:00 22,4 C 15,1 C 13,7 C 85 % 0 % 1011 hPa 0,0 l/m 1,9 km/h (1 Bft) 0,00 h 0,00 h
05.10.2012 22:00 22,4 C 14,7 C 13,4 C 85 % 0 % 1011 hPa 0,0 l/m 2,5 km/h (1 Bft) 0,00 h 0,00 h
05.10.2012 23:00 22,4 C 13,5 C 12,4 C 87 % 0 % 1012 hPa 0,0 l/m 2,3 km/h (1 Bft) 0,00 h 0,00 h
06.10.2012 00:00 22,3 C 12,9 C 12,1 C 89 % 0 % 1012 hPa 0,0 l/m 3,5 km/h (1 Bft) 0,00 h 0,00 h
06.10.2012 01:00 22,2 C 12,4 C 11,9 C 92 % 0 % 1012 hPa 0,0 l/m 2,1 km/h (1 Bft) 0,00 h 0,00 h
06.10.2012 02:00 22,2 C 12,5 C 11,7 C 89 % 0 % 1012 hPa 0,0 l/m 2,1 km/h (1 Bft) 0,00 h 0,00 h
06.10.2012 03:00 22,1 C 11,0 C 10,5 C 94 % 0 % 1012 hPa 0,0 l/m 4,9 km/h (1 Bft) 0,00 h 0,00 h
06.10.2012 04:00 22,2 C 10,5 C 10,4 C 97 % 0 % 1012 hPa 0,0 l/m 4,5 km/h (1 Bft) 0,00 h 0,00 h
06.10.2012 05:00 22,2 C 10,1 C 9,9 C 98 % 0 % 1011 hPa 0,0 l/m 4,9 km/h (1 Bft) 0,00 h 0,00 h
06.10.2012 06:00 22,2 C 9,9 C 10,2 C 98 % 0 % 1011 hPa 0,0 l/m 0,6 km/h (0 Bft) 0,00 h 0,00 h
06.10.2012 07:00 22,3 C 9,6 C 10,7 C 98 % 3 % 1011 hPa 0,0 l/m 3,9 km/h (1 Bft) 0,00 h 0,00 h
06.10.2012 08:00 20,9 C 10,1 C 13,0 C 97 % 11 % 1011 hPa 0,0 l/m 2,1 km/h (1 Bft) 0,00 h 0,00 h
06.10.2012 09:00 20,7 C 12,4 C 27,9 C 95 % 19 % 1011 hPa 0,0 l/m 6,1 km/h (2 Bft) 0,00 h 0,00 h
06.10.2012 10:00 21,9 C 14,4 C 25,5 C 90 % 36 % 1011 hPa 0,0 l/m 9,3 km/h (2 Bft) 0,00 h 0,00 h
06.10.2012 11:00 22,1 C 16,5 C 29,5 C 83 % 55 % 1011 hPa 0,0 l/m 5,6 km/h (1 Bft) 0,50 h 0,00 h
06.10.2012 12:00 22,3 C 19,0 C 22,4 C 72 % 89 % 1011 hPa 0,0 l/m 5,3 km/h (1 Bft) 1,00 h 0,00 h
06.10.2012 13:00 22,4 C 21,0 C 19,5 C 65 % 100 % 1010 hPa 0,0 l/m 4,5 km/h (1 Bft) 1,00 h 0,00 h
06.10.2012 14:00 22,3 C 23,0 C 20,1 C 47 % 91 % 1009 hPa 0,0 l/m 18,8 km/h (3 Bft) 1,00 h 0,00 h
06.10.2012 15:00 22,2 C 22,9 C 20,5 C 44 % 61 % 1009 hPa 0,0 l/m 11,3 km/h (2 Bft) 0,60 h 0,00 h
06.10.2012 16:00 22,4 C 22,7 C 21,5 C 44 % 80 % 1008 hPa 0,0 l/m 11,4 km/h (2 Bft) 1,00 h 0,00 h
06.10.2012 17:00 22,3 C 22,2 C 19,6 C 43 % 28 % 1008 hPa 0,0 l/m 14,2 km/h (3 Bft) 0,55 h 0,00 h
06.10.2012 18:00 22,4 C 20,7 C 17,2 C 47 % 2 % 1008 hPa 0,0 l/m 16,2 km/h (3 Bft) 0,00 h 0,00 h
06.10.2012 19:00 22,4 C 19,7 C 16,6 C 50 % 0 % 1009 hPa 0,0 l/m 15,6 km/h (3 Bft) 0,00 h 0,00 h
06.10.2012 20:00 22,2 C 18,8 C 15,9 C 54 % 0 % 1009 hPa 0,0 l/m 11,0 km/h (2 Bft) 0,00 h 0,00 h
06.10.2012 21:00 22,2 C 18,0 C 15,4 C 56 % 0 % 1009 hPa 0,0 l/m 8,9 km/h (2 Bft) 0,00 h 0,00 h
06.10.2012 22:00 22,1 C 17,9 C 15,6 C 59 % 0 % 1009 hPa 0,0 l/m 11,7 km/h (2 Bft) 0,00 h 0,00 h
06.10.2012 23:00 22,0 C 17,8 C 15,4 C 58 % 0 % 1009 hPa 0,0 l/m 12,9 km/h (3 Bft) 0,00 h 0,00 h
07.10.2012 00:00 22,0 C 17,4 C 15,2 C 61 % 0 % 1010 hPa 0,0 l/m 14,0 km/h (3 Bft) 0,00 h 0,00 h
07.10.2012 01:00 22,0 C 16,3 C 14,7 C 68 % 0 % 1010 hPa 0,0 l/m 11,6 km/h (2 Bft) 0,00 h 0,00 h
07.10.2012 02:00 22,0 C 15,3 C 14,0 C 77 % 0 % 1010 hPa 0,7 l/m 5,2 km/h (1 Bft) 0,00 h 0,85 h
07.10.2012 03:00 21,9 C 14,6 C 13,4 C 82 % 0 % 1010 hPa 0,7 l/m 0,0 km/h (0 Bft) 0,00 h 1,00 h
07.10.2012 04:00 21,9 C 14,0 C 13,3 C 87 % 0 % 1009 hPa 0,7 l/m 0,4 km/h (0 Bft) 0,00 h 1,00 h
07.10.2012 05:00 21,4 C 13,7 C 13,3 C 91 % 0 % 1009 hPa 0,7 l/m 0,4 km/h (0 Bft) 0,00 h 0,85 h
07.10.2012 06:00 20,7 C 13,2 C 12,9 C 92 % 0 % 1008 hPa 0,0 l/m 2,4 km/h (1 Bft) 0,00 h 0,20 h
07.10.2012 07:00 21,6 C 13,3 C 13,0 C 92 % 1 % 1007 hPa 1,0 l/m 0,5 km/h (0 Bft) 0,00 h 1,00 h
07.10.2012 08:00 22,0 C 13,3 C 13,2 C 94 % 4 % 1007 hPa 1,0 l/m 2,6 km/h (1 Bft) 0,00 h 1,00 h
07.10.2012 09:00 22,0 C 13,5 C 13,5 C 94 % 8 % 1007 hPa 1,0 l/m 1,1 km/h (0 Bft) 0,00 h 1,00 h
07.10.2012 10:00 22,0 C 13,7 C 13,6 C 96 % 9 % 1006 hPa 2,7 l/m 10,2 km/h (2 Bft) 0,00 h 1,00 h
07.10.2012 11:00 21,9 C 13,8 C 13,7 C 97 % 11 % 1006 hPa 0,0 l/m 11,3 km/h (2 Bft) 0,00 h 0,15 h
07.10.2012 12:00 21,6 C 14,0 C 14,0 C 97 % 16 % 1006 hPa 2,1 l/m 11,7 km/h (2 Bft) 0,00 h 0,95 h
07.10.2012 13:00 21,6 C 14,3 C 14,4 C 96 % 26 % 1006 hPa 1,0 l/m 21,0 km/h (4 Bft) 0,00 h 0,85 h
07.10.2012 14:00 22,0 C 13,6 C 13,6 C 96 % 14 % 1008 hPa 0,3 l/m 6,7 km/h (2 Bft) 0,00 h 0,95 h
07.10.2012 15:00 22,1 C 12,4 C 13,2 C 95 % 24 % 1009 hPa 0,0 l/m 14,5 km/h (3 Bft) 0,10 h 0,00 h
07.10.2012 16:00 22,2 C 12,2 C 13,5 C 91 % 48 % 1011 hPa 0,0 l/m 11,8 km/h (2 Bft) 0,40 h 0,00 h
07.10.2012 17:00 22,3 C 11,8 C 13,2 C 81 % 42 % 1013 hPa 0,0 l/m 17,1 km/h (3 Bft) 1,00 h 0,00 h
07.10.2012 18:00 22,4 C 10,4 C 11,0 C 82 % 6 % 1014 hPa 0,0 l/m 4,3 km/h (1 Bft) 0,40 h 0,00 h
07.10.2012 19:00 22,4 C 9,5 C 10,2 C 89 % 0 % 1015 hPa 0,0 l/m 4,3 km/h (1 Bft) 0,00 h 0,00 h
07.10.2012 20:00 22,4 C 9,5 C 10,4 C 93 % 0 % 1015 hPa 0,0 l/m 4,9 km/h (1 Bft) 0,00 h 0,00 h
07.10.2012 21:00 22,4 C 9,6 C 10,4 C 94 % 0 % 1015 hPa 0,0 l/m 6,9 km/h (2 Bft) 0,00 h 0,00 h
07.10.2012 22:00 22,3 C 9,6 C 10,2 C 93 % 0 % 1016 hPa 0,0 l/m 9,6 km/h (2 Bft) 0,00 h 0,00 h
07.10.2012 23:00 22,2 C 9,2 C 10,0 C 93 % 0 % 1016 hPa 0,0 l/m 8,5 km/h (2 Bft) 0,00 h 0,00 h
Min-Datum _ 06.10.12 03.10.12 03.10.12 06.10.12 - 04.10.12 - 01.10.12 - -
_ Min-Zeit 08:51 05:28 05:31 17:27 - 14:29 - 00:02 - -
Minimum _ 18,4 C 6,8 C 7,7 C 41 % - 1006 hPa - 0,0 km/h (0 Bft) - -
Max-Datum _ 03.10.12 06.10.12 06.10.12 03.10.12 02.10.12 07.10.12 07.10.12 04.10.12 01.10.12 01.10.12
_ Max-Zeit 19:37 14:39 11:51 03:46 15:46 22:07 10:19 19:02 12:54 07:09
Maximum _ 24,2 C 23,4 C 36,9 C 99 % 100 % 1016 hPa 2,7 l/m 63,8 km/h
NW (8 Bft)
0,05 h 0,05 h
Durchschnitt _ 22,4 C 13,3 C 13,8 C 86 % #25:45 h 1011 hPa #15,4 l/m 4,6 km/h (1 Bft) #25:45 h #16:45 h